Flight Track Log - Related Links

Times and Time Zones

All times are in EDT time to prevent confusion due to time zone crossing. See the SWA558 flight status page for this flight to view local times or setup timezone preferences in your user account.

Time Position Orientation Groundspeed Altitude Reporting Facility
EDT Latitude Longitude Course Direction KTS MPH feet Rate Location/Type
Tue 04:02:52 PM 41.7131 -87.8683 216° Southwest 215 247 7,000  Level Chicago Center
Tue 04:03:54 PM 41.6594 -87.9231 217° Southwest 237 273 8,000 1,210 Climbing Chicago Center
Tue 04:04:56 PM 41.5958 -87.9856 216° Southwest 239 275 9,500 1,452 Climbing Chicago Center
Tue 04:05:58 PM 41.5431 -88.0397 218° Southwest 242 278 11,000 1,500 Climbing Chicago Center
Tue 04:07:00 PM 41.4886 -88.0936 217° Southwest 247 284 12,600 1,296 Climbing Chicago Center
Tue 04:08:03 PM 41.4331 -88.1483 216° Southwest 258 297 13,700 720 Climbing Chicago Center
Tue 04:09:05 PM 41.3550 -88.2033 208° Southwest 281 323 14,100 1,355 Climbing Chicago Center
Tue 04:10:07 PM 41.2678 -88.2419 198° South 330 380 16,500 2,758 Climbing Chicago Center
Tue 04:11:09 PM 41.1761 -88.2828 199° South 345 397 19,800 2,952 Climbing Chicago Center
Tue 04:12:11 PM 41.0806 -88.3272 199° South 359 413 22,600 2,806 Climbing Chicago Center
Tue 04:13:13 PM 40.9600 -88.3794 198° South 377 434 25,600 2,419 Climbing Chicago Center
Tue 04:14:15 PM 40.8597 -88.4344 203° Southwest 391 450 27,600 1,790 Climbing Chicago Center
Tue 04:15:17 PM 40.7758 -88.5267 220° Southwest 394 453 29,300 1,839 Climbing Chicago Center
Tue 04:16:19 PM 40.6900 -88.6175 219° Southwest 398 458 31,400 1,935 Climbing Chicago Center
Tue 04:17:21 PM 40.6044 -88.7069 218° Southwest 395 455 33,300 2,081 Climbing Chicago Center
Tue 04:18:23 PM 40.5044 -88.8125 219° Southwest 388 447 35,700 1,935 Climbing Chicago Center
Tue 04:19:25 PM 40.4264 -88.8928 218° Southwest 386 444 37,300 1,452 Climbing Chicago Center
Tue 04:20:27 PM 40.3439 -88.9792 219° Southwest 380 437 38,700 1,152 Climbing Chicago Center
Tue 04:21:30 PM 40.2628 -89.0639 219° Southwest 374 430 39,700 624 Climbing Chicago Center
Tue 04:22:32 PM 40.1792 -89.1500 218° Southwest 380 437 40,000 165 Climbing Chicago Center
Tue 04:23:19 PM 40.1106 -89.2206 218° Southwest 382 440 40,000  Level Kansas City Center
Tue 04:24:20 PM 40.0267 -89.3053 218° Southwest 381 438 40,000  Level Kansas City Center
Tue 04:25:24 PM 39.9428 -89.3931 219° Southwest 383 441 40,000  Level Kansas City Center
Tue 04:27:25 PM 39.7581 -89.5811 218° Southwest 383 441 40,000  Level Kansas City Center
Tue 04:28:29 PM 39.6800 -89.6606 218° Southwest 385 443 40,000  Level Kansas City Center
Tue 04:29:30 PM 39.5972 -89.7458 218° Southwest 382 440 40,000  Level Kansas City Center
Tue 04:30:31 PM 39.4972 -89.8469 218° Southwest 381 438 40,000  Level Kansas City Center
Tue 04:31:35 PM 39.4125 -89.9311 218° Southwest 383 441 40,000  Level Kansas City Center
Tue 04:32:36 PM 39.3303 -90.0161 219° Southwest 381 438 40,000  Level Kansas City Center
Tue 04:33:37 PM 39.2456 -90.1006 218° Southwest 384 442 40,000  Level Kansas City Center
Tue 04:34:40 PM 39.1608 -90.1856 218° Southwest 386 444 40,000  Level Kansas City Center
Tue 04:35:41 PM 39.0758 -90.2703 218° Southwest 388 447 40,000  Level Kansas City Center
Tue 04:36:44 PM 38.9731 -90.3719 218° Southwest 390 449 40,000  Level Kansas City Center
Tue 04:37:47 PM 38.8892 -90.4539 217° Southwest 382 440 40,000  Level Kansas City Center
Tue 04:38:48 PM 38.8047 -90.5453 220° Southwest 397 457 40,000  Level Kansas City Center
Tue 04:39:49 PM 38.7256 -90.6375 222° Southwest 387 445 40,000  Level Kansas City Center
Tue 04:40:53 PM 38.6356 -90.7428 222° Southwest 387 445 40,000  Level Kansas City Center
Tue 04:41:54 PM 38.5567 -90.8322 222° Southwest 385 443 40,000  Level Kansas City Center
Tue 04:42:55 PM 38.4775 -90.9236 222° Southwest 385 443 40,000  Level Kansas City Center
Tue 04:43:59 PM 38.3981 -91.0153 222° Southwest 387 445 40,000  Level Kansas City Center
Tue 04:45:00 PM 38.3192 -91.1036 221° Southwest 381 438 40,000  Level Kansas City Center
Tue 04:46:01 PM 38.2389 -91.1947 222° Southwest 384 442 40,000  Level Kansas City Center
Tue 04:47:05 PM 38.1500 -91.2958 222° Southwest 381 438 40,000  Level Kansas City Center
Tue 04:48:05 PM 38.0683 -91.3864 221° Southwest 382 440 40,000  Level Kansas City Center
Tue 04:49:08 PM 37.9872 -91.4778 222° Southwest 385 443 40,000  Level Kansas City Center
Tue 04:50:09 PM 37.9078 -91.5689 222° Southwest 383 441 40,000  Level Kansas City Center
Tue 04:51:13 PM 37.8119 -91.6767 222° Southwest 380 437 40,000  Level Kansas City Center
Tue 04:52:14 PM 37.7317 -91.7653 221° Southwest 378 435 40,000  Level Kansas City Center
Tue 04:53:15 PM 37.6531 -91.8531 221° Southwest 376 433 40,000  Level Kansas City Center
Tue 04:54:19 PM 37.5736 -91.9419 222° Southwest 376 433 40,000  Level Kansas City Center
Tue 04:56:00 PM 37.4432 -92.0854 221° Southwest  Level FlightAware Approximate
Tue 04:57:25 PM 37.3325 -92.2108 221° Southwest 382 440 40,000  Level Kansas City Center
Tue 04:58:25 PM 37.2522 -92.2989 221° Southwest 381 438 40,000  Level Kansas City Center
Tue 04:59:29 PM 37.1714 -92.3872 221° Southwest 381 438 40,000  Level Kansas City Center
Tue 05:00:30 PM 37.0753 -92.4914 221° Southwest 379 436 40,000  Level Kansas City Center
Tue 05:01:31 PM 36.9947 -92.5794 221° Southwest 379 436 40,000  Level Kansas City Center
Tue 05:02:35 PM 36.9147 -92.6658 221° Southwest 380 437 40,000  Level Kansas City Center
Tue 05:03:36 PM 36.8336 -92.7531 221° Southwest 381 438 40,000  Level Kansas City Center
Tue 05:03:58 PM 36.7978 -92.7925 221° Southwest 387 445 40,000  Level Memphis Center
Tue 05:04:58 PM 36.7169 -92.8806 221° Southwest 381 438 40,000  Level Memphis Center
Tue 05:05:58 PM 36.6358 -92.9661 220° Southwest 381 438 40,000  Level Memphis Center
Tue 05:06:58 PM 36.5569 -93.0486 220° Southwest 386 444 40,000  Level Memphis Center
Tue 05:07:58 PM 36.4758 -93.1364 221° Southwest 386 444 40,000  Level Memphis Center
Tue 05:08:58 PM 36.4033 -93.2139 221° Southwest 386 444 40,000  Level Memphis Center
Tue 05:09:58 PM 36.3242 -93.2986 221° Southwest 386 444 40,000  Level Memphis Center
Tue 05:10:58 PM 36.2431 -93.3806 219° Southwest 386 444 40,000  Level Memphis Center
Tue 05:11:58 PM 36.1636 -93.4678 222° Southwest 386 444 40,000  Level Memphis Center
Tue 05:12:58 PM 36.0825 -93.5494 219° Southwest 386 444 40,000  Level Memphis Center
Tue 05:13:58 PM 36.0008 -93.6361 221° Southwest 386 444 40,000  Level Memphis Center
Tue 05:14:58 PM 35.9214 -93.7200 221° Southwest 386 444 40,000  Level Memphis Center
Tue 05:15:58 PM 35.8419 -93.8039 221° Southwest 386 444 40,000  Level Memphis Center
Tue 05:16:58 PM 35.7606 -93.8875 220° Southwest 386 444 40,000  Level Memphis Center
Tue 05:17:58 PM 35.6789 -93.9708 220° Southwest 386 444 40,000  Level Memphis Center
Tue 05:18:58 PM 35.5992 -94.0542 220° Southwest 386 444 40,000  Level Memphis Center
Tue 05:19:58 PM 35.5197 -94.1372 220° Southwest 386 444 40,000  Level Memphis Center
Tue 05:20:58 PM 35.4400 -94.2203 220° Southwest 386 444 40,000  Level Memphis Center
Tue 05:22:58 PM 35.2664 -94.3675 215° Southwest 386 444 40,000  Level Memphis Center
Tue 05:23:58 PM 35.1722 -94.4367 211° Southwest 391 450 40,000  Level Memphis Center
Tue 05:24:58 PM 35.0825 -94.5058 212° Southwest 391 450 40,000  Level Memphis Center
Tue 05:26:07 PM 34.9742 -94.5908 213° Southwest 387 445 40,000  Level Fort Worth Center
Tue 05:27:07 PM 34.8797 -94.6597 211° Southwest 394 453 40,000  Level Fort Worth Center
Tue 05:28:07 PM 34.7978 -94.7256 213° Southwest 394 453 40,000  Level Fort Worth Center
Tue 05:29:07 PM 34.7072 -94.7942 212° Southwest 394 453 40,000  Level Fort Worth Center
Tue 05:30:07 PM 34.6128 -94.8653 212° Southwest 394 453 40,000  Level Fort Worth Center
Tue 05:31:07 PM 34.5183 -94.9361 212° Southwest 389 448 40,000  Level Fort Worth Center
Tue 05:32:07 PM 34.4297 -95.0039 212° Southwest 389 448 40,000  Level Fort Worth Center
Tue 05:33:07 PM 34.3353 -95.0719 211° Southwest 394 453 40,000  Level Fort Worth Center
Tue 05:34:07 PM 34.2447 -95.1397 212° Southwest 394 453 40,000  Level Fort Worth Center
Tue 05:35:07 PM 34.1539 -95.2075 212° Southwest 389 448 40,000  Level Fort Worth Center
Tue 05:36:07 PM 34.0633 -95.2725 211° Southwest 389 448 40,000  Level Fort Worth Center
Tue 05:37:07 PM 33.9747 -95.3397 212° Southwest 379 436 40,000  Level Fort Worth Center
Tue 05:38:07 PM 33.8861 -95.4019 210° Southwest 379 436 40,000  Level Fort Worth Center
Tue 05:39:07 PM 33.7994 -95.4689 213° Southwest 380 437 40,000  Level Fort Worth Center
Tue 05:40:07 PM 33.7086 -95.5358 212° Southwest 380 437 40,000  Level Fort Worth Center
Tue 05:41:07 PM 33.6239 -95.5975 211° Southwest 380 437 40,000  Level Fort Worth Center
Tue 05:42:07 PM 33.5350 -95.6592 210° Southwest 380 437 40,000  Level Fort Worth Center
Tue 05:43:07 PM 33.4461 -95.7231 211° Southwest 380 437 40,000  Level Fort Worth Center
Tue 05:44:07 PM 33.3614 -95.7869 212° Southwest 380 437 40,000  Level Fort Worth Center
Tue 05:45:07 PM 33.2703 -95.8506 210° Southwest 380 437 40,000  Level Fort Worth Center
Tue 05:46:07 PM 33.1836 -95.9142 212° Southwest 380 437 40,000  Level Fort Worth Center
Tue 05:47:07 PM 33.0903 -95.9803 211° Southwest 380 437 40,000  Level Fort Worth Center
Tue 05:48:07 PM 33.0033 -96.0461 212° Southwest 380 437 40,000  Level Fort Worth Center
Tue 05:49:06 PM 32.9142 -96.1069 210° Southwest 380 437 40,000  Level Fort Worth Center
Tue 05:50:07 PM 32.8253 -96.1725 212° Southwest 380 437 40,000  Level Fort Worth Center
Tue 05:51:07 PM 32.7381 -96.2328 210° Southwest 380 437 40,000  Level Fort Worth Center
Tue 05:52:07 PM 32.6489 -96.2981 212° Southwest 380 437 40,000  Level Fort Worth Center
Tue 05:53:07 PM 32.5597 -96.3583 210° Southwest 380 437 40,000  Level Fort Worth Center
Tue 05:54:07 PM 32.4808 -96.4161 212° Southwest 380 437 40,000  Level Fort Worth Center
Tue 05:55:07 PM 32.3914 -96.4786 211° Southwest 377 434 40,000  Level Fort Worth Center
Tue 05:56:07 PM 32.3042 -96.5408 211° Southwest 385 443 40,000 -150 Level Fort Worth Center
Tue 05:57:07 PM 32.2128 -96.6031 210° Southwest 380 437 39,700 -650 Descending Fort Worth Center
Tue 05:58:07 PM 32.1233 -96.6678 212° Southwest 375 432 38,700 -1,000 Descending Fort Worth Center
Tue 05:59:07 PM 32.0236 -96.7369 210° Southwest 380 437 37,700 -950 Descending Fort Worth Center
Tue 06:00:07 PM 31.9342 -96.8039 212° Southwest 386 444 36,800 -950 Descending Fort Worth Center
Tue 06:01:07 PM 31.8406 -96.8681 210° Southwest 387 445 35,800 -1,450 Descending Fort Worth Center
Tue 06:02:07 PM 31.7489 -96.9319 211° Southwest 382 440 33,900 -1,750 Descending Fort Worth Center
Tue 06:03:07 PM 31.6594 -96.9961 211° Southwest 382 440 32,300 -1,714 Descending Fort Worth Center
Tue 06:04:06 PM 31.5614 -97.0622 210° Southwest 396 456 30,500 -2,100 Descending Fort Worth Center
Tue 06:05:07 PM 31.4592 -97.1114 202° Southwest 401 461 28,100 -2,132 Descending Fort Worth Center
Tue 06:05:22 PM 31.4411 -97.1181 197° South 400 460 27,800 -2,182 Descending Houston Center
Tue 06:06:24 PM 31.3378 -97.1589 199° South 390 449 25,300 -2,323 Descending Houston Center
Tue 06:07:26 PM 31.2381 -97.1972 198° South 375 432 23,000 -2,371 Descending Houston Center
Tue 06:08:28 PM 31.1272 -97.2411 199° South 359 413 20,400 -2,323 Descending Houston Center
Tue 06:09:30 PM 31.0356 -97.2772 199° South 349 402 18,200 -2,081 Descending Houston Center
Tue 06:10:32 PM 30.9478 -97.3119 199° South 346 398 16,100 -1,935 Descending Houston Center
Tue 06:11:34 PM 30.8592 -97.3453 198° South 340 391 14,200 -1,488 Descending Houston Center
Tue 06:12:37 PM 30.7583 -97.3836 198° South 328 377 13,000 -1,056 Descending Houston Center
Tue 06:13:39 PM 30.6731 -97.4161 198° South 322 371 12,000 -1,161 Descending Houston Center
Tue 06:14:41 PM 30.5889 -97.4481 198° South 316 364 10,600 -1,161 Descending Houston Center
Tue 06:15:43 PM 30.5067 -97.4669 191° South 301 346 9,600 -1,065 Descending Houston Center
Tue 06:16:45 PM 30.4331 -97.4817 190° South 274 315 8,400 -1,403 Descending Houston Center
Tue 06:17:47 PM 30.3628 -97.4972 191° South 257 296 6,700 -1,161 Descending Houston Center
Tue 06:18:49 PM 30.2925 -97.5147 192° South 255 293 6,000 -816 Descending Houston Center
Tue 06:19:52 PM 30.2125 -97.5331 191° South 250 288 5,000 -1,152 Descending Houston Center
Tue 06:20:54 PM 30.1436 -97.5592 198° South 254 292 3,600 -1,065 Descending Houston Center
Tue 06:21:56 PM 30.0794 -97.5953 206° Southwest 254 292 2,800 -677 Descending Houston Center
Tue 06:22:58 PM 30.0844 -97.6578 275° West 229 264 2,200 -581 Descending Houston Center
Tue 06:24:00 PM 30.1219 -97.6558 North 158 182 1,600 -484 Descending Houston Center
Tue 06:25:02 PM 30.1542 -97.6539 North 138 159 1,200 -387 Descending Houston Center

Login

Don't have an account? Register now (free) for customized features, flight alerts, and more!